createdAt,value
2023-07-17T00:02:17.076Z,4.55
2023-07-17T00:04:54.095Z,5.35
2023-07-17T00:07:21.972Z,4.32
2023-07-17T00:09:49.827Z,4.25
2023-07-17T00:12:19.583Z,4.05
2023-07-17T00:14:47.662Z,4.15
2023-07-17T00:17:16.414Z,4.40
2023-07-17T00:19:55.214Z,3.83
2023-07-17T00:22:24.319Z,4.00
2023-07-17T00:24:56.109Z,3.80
2023-07-17T00:27:26.325Z,3.60
2023-07-17T00:29:54.541Z,3.92
2023-07-17T00:32:23.381Z,4.38
2023-07-17T00:34:51.299Z,3.80
2023-07-17T00:37:22.599Z,3.72
2023-07-17T00:39:51.493Z,3.25
2023-07-17T00:44:57.001Z,3.30
2023-07-17T00:47:25.864Z,3.13
2023-07-17T00:49:59.373Z,2.97
2023-07-17T00:52:33.445Z,3.17
2023-07-17T00:55:01.686Z,2.90
2023-07-17T00:57:30.784Z,3.00
2023-07-17T00:59:58.881Z,2.85
2023-07-17T01:02:32.148Z,2.40
2023-07-17T01:04:59.613Z,2.30
2023-07-17T01:07:27.294Z,2.65
2023-07-17T01:10:02.269Z,2.47
2023-07-17T01:12:33.432Z,2.35
2023-07-17T01:15:08.193Z,2.28
2023-07-17T01:17:40.175Z,2.50
2023-07-17T01:20:12.011Z,3.00
2023-07-17T01:22:59.511Z,2.85
2023-07-17T01:25:29.451Z,2.55
2023-07-17T01:28:14.516Z,2.50
2023-07-17T01:30:42.607Z,2.40
2023-07-17T01:33:12.992Z,2.55
2023-07-17T01:35:43.746Z,2.50
2023-07-17T01:38:13.971Z,2.30
2023-07-17T01:40:47.061Z,2.08
2023-07-17T01:43:15.012Z,2.38
2023-07-17T01:45:42.263Z,2.15
2023-07-17T01:48:09.706Z,2.50
2023-07-17T01:50:41.610Z,2.20
2023-07-17T01:53:12.029Z,2.22
2023-07-17T01:55:40.105Z,2.60
2023-07-17T01:58:09.359Z,2.17
2023-07-17T02:00:40.314Z,2.58
2023-07-17T02:03:08.075Z,2.65
2023-07-17T02:05:39.279Z,2.50
2023-07-17T02:08:15.986Z,2.20
2023-07-17T02:10:51.355Z,2.50
2023-07-17T02:13:19.470Z,2.50
2023-07-17T02:15:48.080Z,2.25
2023-07-17T02:18:16.128Z,2.72
2023-07-17T02:21:03.516Z,2.40
2023-07-17T02:23:40.072Z,3.00
2023-07-17T02:26:11.793Z,2.53
2023-07-17T02:28:40.436Z,2.97
2023-07-17T02:31:12.239Z,2.70
2023-07-17T02:33:39.864Z,3.10
2023-07-17T02:36:11.175Z,2.78
2023-07-17T02:38:41.106Z,2.03
2023-07-17T02:41:11.933Z,2.75
2023-07-17T02:43:39.285Z,2.65
2023-07-17T02:46:09.457Z,2.35
2023-07-17T02:48:37.292Z,2.40
2023-07-17T02:51:07.417Z,1.67
2023-07-17T02:53:36.110Z,2.17
2023-07-17T02:56:06.213Z,2.45
2023-07-17T02:58:34.192Z,2.20
2023-07-17T03:01:01.955Z,1.90
2023-07-17T03:03:30.114Z,2.08
2023-07-17T03:06:03.399Z,2.13
2023-07-17T03:08:34.199Z,1.98
2023-07-17T03:11:07.332Z,1.90
2023-07-17T03:13:34.785Z,2.25
2023-07-17T03:16:04.941Z,2.17
2023-07-17T03:18:35.203Z,1.73
2023-07-17T03:21:24.137Z,1.73
2023-07-17T03:24:03.374Z,1.73
2023-07-17T03:26:32.115Z,2.63
2023-07-17T03:29:00.191Z,1.50
2023-07-17T03:31:27.455Z,1.58
2023-07-17T03:34:12.044Z,1.95
2023-07-17T03:36:42.482Z,1.60
2023-07-17T03:39:10.407Z,1.67
2023-07-17T03:41:43.350Z,2.03
2023-07-17T03:44:10.757Z,1.75
2023-07-17T03:46:38.747Z,2.33
2023-07-17T03:49:09.076Z,1.50
2023-07-17T03:51:37.217Z,1.90
2023-07-17T03:54:05.261Z,1.65
2023-07-17T03:56:52.682Z,1.92
2023-07-17T03:59:26.679Z,1.60
2023-07-17T04:01:56.904Z,2.17
2023-07-17T04:04:27.166Z,1.60
2023-07-17T04:07:01.271Z,2.20
2023-07-17T04:09:30.610Z,1.33
2023-07-17T04:11:58.367Z,1.55
2023-07-17T04:14:27.807Z,1.90
2023-07-17T04:17:33.363Z,1.15
2023-07-17T04:22:21.184Z,1.67
2023-07-17T04:25:05.550Z,1.30
2023-07-17T04:30:06.665Z,1.67
2023-07-17T04:32:34.934Z,2.28
2023-07-17T04:35:02.686Z,1.30
2023-07-17T04:37:44.866Z,1.50
2023-07-17T04:40:15.566Z,1.15
2023-07-17T04:42:50.414Z,1.23
2023-07-17T04:45:25.671Z,1.65
2023-07-17T04:47:56.624Z,1.52
2023-07-17T04:50:36.136Z,1.30
2023-07-17T04:53:10.221Z,1.17
2023-07-17T04:55:48.132Z,1.00
2023-07-17T04:58:18.492Z,1.38
2023-07-17T05:01:00.808Z,1.27
2023-07-17T05:03:41.028Z,1.42
2023-07-17T05:06:11.472Z,1.30
2023-07-17T05:08:38.800Z,1.40
2023-07-17T05:11:12.944Z,1.20
2023-07-17T05:13:46.791Z,1.42
2023-07-17T05:16:16.886Z,1.50
2023-07-17T05:18:47.379Z,1.40
2023-07-17T05:21:17.787Z,1.30
2023-07-17T05:23:54.114Z,1.20
2023-07-17T05:26:23.441Z,1.25
2023-07-17T05:28:56.542Z,1.38
2023-07-17T05:31:28.130Z,1.42
2023-07-17T05:34:11.319Z,1.17
2023-07-17T05:36:42.076Z,1.15
2023-07-17T05:39:20.567Z,1.30
2023-07-17T05:41:51.520Z,1.48
2023-07-17T05:44:30.537Z,1.13
2023-07-17T05:47:18.513Z,1.20
2023-07-17T05:50:07.785Z,1.38
2023-07-17T05:52:40.416Z,1.05
2023-07-17T05:55:19.468Z,1.27
2023-07-17T05:57:57.373Z,1.10
2023-07-17T06:00:36.927Z,1.08
2023-07-17T06:03:22.085Z,1.55
2023-07-17T06:06:10.322Z,1.10
2023-07-17T06:08:41.675Z,1.08
2023-07-17T06:11:22.806Z,1.30
2023-07-17T06:14:09.854Z,0.95
2023-07-17T06:16:41.199Z,0.98
2023-07-17T06:19:10.146Z,1.10
2023-07-17T06:21:46.634Z,1.40
2023-07-17T06:24:26.730Z,1.20
2023-07-17T06:27:04.273Z,1.70
2023-07-17T06:29:42.209Z,1.15
2023-07-17T06:32:30.595Z,1.35
2023-07-17T06:35:08.145Z,1.20
2023-07-17T06:37:38.101Z,1.20
2023-07-17T06:40:12.552Z,1.08
2023-07-17T06:42:45.500Z,1.00
2023-07-17T06:45:15.801Z,1.08
2023-07-17T06:48:20.271Z,1.00
2023-07-17T06:51:27.765Z,1.08
2023-07-17T06:57:32.076Z,0.88
2023-07-17T07:00:07.425Z,1.10
2023-07-17T07:02:47.157Z,1.20
2023-07-17T07:07:59.815Z,0.77
2023-07-17T07:10:48.032Z,1.10
2023-07-17T07:13:26.468Z,1.05
2023-07-17T07:16:54.937Z,1.50
2023-07-17T07:20:01.481Z,1.30
2023-07-17T07:22:33.751Z,1.00
2023-07-17T07:25:06.776Z,1.17
2023-07-17T07:27:34.341Z,0.85
2023-07-17T07:30:08.787Z,0.80
2023-07-17T07:33:06.292Z,1.17
2023-07-17T07:38:39.009Z,1.02
2023-07-17T07:41:15.192Z,0.85
2023-07-17T07:43:59.728Z,1.02
2023-07-17T07:46:49.701Z,1.20
2023-07-17T07:49:20.330Z,1.00
2023-07-17T07:51:53.495Z,1.00
2023-07-17T07:55:02.547Z,1.15
2023-07-17T07:57:34.723Z,1.05
2023-07-17T08:00:27.927Z,1.13
2023-07-17T08:03:13.244Z,1.10
2023-07-17T08:05:47.823Z,1.23
2023-07-17T08:08:18.900Z,1.00
2023-07-17T08:11:27.776Z,1.00
2023-07-17T08:14:14.253Z,1.20
2023-07-17T08:17:05.269Z,1.00
2023-07-17T08:19:44.248Z,0.93
2023-07-17T08:22:14.096Z,1.00
2023-07-17T08:25:04.485Z,1.17
2023-07-17T08:27:32.893Z,0.95
2023-07-17T08:30:27.213Z,1.00
2023-07-17T08:32:58.403Z,1.10
2023-07-17T08:35:44.682Z,1.00
2023-07-17T08:38:25.769Z,0.90
2023-07-17T08:41:01.395Z,0.85
2023-07-17T08:43:39.579Z,1.10
2023-07-17T08:46:14.006Z,1.00
2023-07-17T08:48:57.355Z,0.95
2023-07-17T08:51:30.793Z,0.70
2023-07-17T08:57:11.196Z,0.95
2023-07-17T08:59:47.417Z,1.20
2023-07-17T09:02:23.485Z,0.75
2023-07-17T09:04:53.885Z,1.10
2023-07-17T09:07:30.083Z,1.20
2023-07-17T09:10:23.939Z,1.20
2023-07-17T09:13:02.853Z,1.00
2023-07-17T09:15:33.652Z,1.05
2023-07-17T09:18:10.403Z,1.05
2023-07-17T09:20:43.721Z,1.10
2023-07-17T09:23:20.585Z,1.30
2023-07-17T09:25:51.110Z,0.93
2023-07-17T09:28:29.460Z,1.10
2023-07-17T09:31:04.021Z,0.85
2023-07-17T09:33:43.125Z,0.80
2023-07-17T09:37:16.169Z,1.10
2023-07-17T09:39:45.528Z,1.10
2023-07-17T09:42:28.844Z,0.90
2023-07-17T09:44:58.807Z,0.93
2023-07-17T09:47:39.743Z,0.75
2023-07-17T09:50:09.329Z,0.52
2023-07-17T09:52:51.350Z,0.90
2023-07-17T09:55:47.323Z,1.05
2023-07-17T09:58:33.375Z,1.10
2023-07-17T10:02:04.678Z,1.10
2023-07-17T10:05:10.183Z,1.10
2023-07-17T10:07:41.491Z,1.13
2023-07-17T10:10:12.986Z,1.00
2023-07-17T10:12:43.888Z,1.00
2023-07-17T10:15:31.253Z,1.10
2023-07-17T10:18:49.031Z,1.30
2023-07-17T10:26:24.506Z,1.17
2023-07-17T10:29:18.769Z,1.02
2023-07-17T10:32:33.205Z,1.05
2023-07-17T10:35:50.073Z,1.20
2023-07-17T10:38:51.806Z,1.58
2023-07-17T10:41:33.661Z,1.05
2023-07-17T10:44:21.237Z,1.00
2023-07-17T10:47:31.355Z,1.00
2023-07-17T10:50:09.555Z,1.38
2023-07-17T10:53:13.569Z,1.40
2023-07-17T10:55:45.220Z,1.60
2023-07-17T10:58:27.469Z,1.00
2023-07-17T11:04:42.119Z,1.25
2023-07-17T11:07:19.342Z,1.17
2023-07-17T11:10:18.450Z,1.17
2023-07-17T11:12:49.470Z,1.10
2023-07-17T11:15:36.173Z,1.20
2023-07-17T11:19:16.742Z,1.40
2023-07-17T11:21:02.685Z,1.23
2023-07-17T11:23:54.684Z,1.40
2023-07-17T11:26:33.981Z,1.20
2023-07-17T11:29:29.556Z,1.33
2023-07-17T11:32:24.169Z,1.05
2023-07-17T11:35:02.577Z,1.10
2023-07-17T11:41:16.326Z,1.52
2023-07-17T11:44:11.482Z,1.30
2023-07-17T11:47:06.293Z,1.40
2023-07-17T11:49:44.794Z,1.30
2023-07-17T11:52:41.236Z,1.13
2023-07-17T11:55:51.716Z,1.08
2023-07-17T11:58:37.838Z,1.20
2023-07-17T12:01:16.821Z,1.10
2023-07-17T12:03:58.868Z,1.00
2023-07-17T12:06:37.036Z,1.17
2023-07-17T12:09:05.525Z,1.27
2023-07-17T12:11:37.363Z,1.30
2023-07-17T12:14:16.855Z,1.23
2023-07-17T12:16:51.371Z,1.30
2023-07-17T12:19:29.931Z,1.50
2023-07-17T12:21:59.727Z,1.60
2023-07-17T12:25:00.340Z,1.50
2023-07-17T12:27:30.403Z,1.20
2023-07-17T12:30:22.673Z,1.25
2023-07-17T12:33:13.531Z,1.20
2023-07-17T12:36:00.348Z,1.30
2023-07-17T12:38:27.801Z,1.38
2023-07-17T12:41:12.779Z,2.00
2023-07-17T12:43:50.374Z,1.90
2023-07-17T12:46:40.576Z,1.50
2023-07-17T12:49:14.627Z,1.60
2023-07-17T12:51:48.979Z,1.25
2023-07-17T12:54:20.048Z,1.15
2023-07-17T12:56:50.152Z,1.23
2023-07-17T12:59:20.576Z,1.58
2023-07-17T13:02:20.024Z,1.27
2023-07-17T13:04:53.121Z,1.10
2023-07-17T13:07:23.714Z,1.35
2023-07-17T13:12:49.114Z,1.45
2023-07-17T13:15:31.544Z,1.42
2023-07-17T13:18:09.324Z,1.40
2023-07-17T13:20:36.930Z,1.33
2023-07-17T13:23:07.672Z,1.40
2023-07-17T13:25:38.070Z,1.67
2023-07-17T13:28:09.650Z,1.42
2023-07-17T13:30:45.125Z,1.10
2023-07-17T13:33:30.578Z,1.20
2023-07-17T13:38:47.121Z,1.48
2023-07-17T13:42:00.123Z,1.30
2023-07-17T13:44:35.188Z,1.55
2023-07-17T13:47:10.068Z,1.48
2023-07-17T13:49:41.837Z,1.30
2023-07-17T13:52:12.357Z,1.38
2023-07-17T13:54:46.012Z,1.40
2023-07-17T13:57:20.221Z,1.55
2023-07-17T14:00:00.757Z,1.38
2023-07-17T14:03:04.629Z,1.30
2023-07-17T14:05:40.269Z,1.65
2023-07-17T14:08:08.104Z,1.60
2023-07-17T14:13:22.490Z,1.60
2023-07-17T14:16:12.115Z,1.23
2023-07-17T14:18:39.562Z,1.40
2023-07-17T14:24:35.279Z,1.98
2023-07-17T14:27:08.032Z,1.52
2023-07-17T14:36:05.550Z,1.90
2023-07-17T14:38:05.652Z,1.42
2023-07-17T14:40:56.400Z,1.30
2023-07-17T14:43:27.746Z,1.17
2023-07-17T14:45:58.539Z,1.40
2023-07-17T14:48:33.637Z,1.25
2023-07-17T14:51:28.713Z,1.60
2023-07-17T14:54:03.017Z,1.55
2023-07-17T14:56:56.566Z,1.77
2023-07-17T14:59:24.120Z,1.23
2023-07-17T15:02:01.178Z,1.92
2023-07-17T15:04:38.054Z,1.85
2023-07-17T15:07:22.966Z,1.55
2023-07-17T15:10:18.826Z,1.75
2023-07-17T15:12:55.366Z,1.23
2023-07-17T15:15:29.128Z,1.60
2023-07-17T15:21:06.821Z,1.90
2023-07-17T15:23:34.657Z,2.35
2023-07-17T15:26:04.653Z,2.72
2023-07-17T15:28:35.354Z,1.60
2023-07-17T15:31:03.064Z,2.05
2023-07-17T15:33:31.111Z,3.35
2023-07-17T15:36:17.129Z,3.05
2023-07-17T15:38:53.570Z,2.00
2023-07-17T15:41:21.865Z,2.17
2023-07-17T15:43:59.475Z,3.35
2023-07-17T15:46:30.223Z,3.60
2023-07-17T15:49:03.928Z,2.10
2023-07-17T15:51:46.121Z,2.45
2023-07-17T15:54:13.630Z,2.28
2023-07-17T15:56:41.527Z,1.90
2023-07-17T15:59:09.605Z,2.15
2023-07-17T16:01:59.599Z,2.28
2023-07-17T16:04:29.580Z,2.42
2023-07-17T16:06:59.236Z,2.50
2023-07-17T16:09:27.467Z,3.00
2023-07-17T16:12:05.153Z,4.32
2023-07-17T16:14:33.073Z,3.22
2023-07-17T16:17:06.226Z,3.35
2023-07-17T16:19:39.194Z,3.05
2023-07-17T16:22:10.049Z,2.80
2023-07-17T16:24:47.335Z,3.00
2023-07-17T16:27:20.818Z,2.70
2023-07-17T16:32:31.209Z,3.13
2023-07-17T16:35:10.732Z,2.63
2023-07-17T16:37:39.566Z,2.83
2023-07-17T16:40:09.531Z,3.42
2023-07-17T16:42:41.267Z,3.08
2023-07-17T16:45:11.828Z,3.15
2023-07-17T16:47:39.808Z,2.90
2023-07-17T16:50:33.152Z,4.10
2023-07-17T16:53:00.673Z,3.92
2023-07-17T16:55:39.845Z,3.65
2023-07-17T16:58:21.578Z,2.97
2023-07-17T17:00:53.241Z,3.10
2023-07-17T17:03:31.888Z,2.70
2023-07-17T17:06:05.313Z,2.67
2023-07-17T17:08:53.190Z,3.00
2023-07-17T17:11:33.832Z,3.30
2023-07-17T17:14:04.437Z,3.30
2023-07-17T17:16:31.960Z,2.67
2023-07-17T17:19:02.586Z,3.50
2023-07-17T17:21:30.802Z,2.92
2023-07-17T17:24:01.362Z,3.63
2023-07-17T17:26:32.359Z,4.00
2023-07-17T17:29:08.988Z,2.83
2023-07-17T17:31:39.684Z,2.70
2023-07-17T17:34:07.701Z,2.78
2023-07-17T17:36:41.786Z,3.08
2023-07-17T17:39:09.593Z,2.53
2023-07-17T17:41:44.455Z,2.83
2023-07-17T17:44:14.797Z,2.75
2023-07-17T17:46:47.058Z,3.13
2023-07-17T17:49:14.839Z,3.15
2023-07-17T17:51:42.140Z,3.08
2023-07-17T17:54:12.870Z,3.22
2023-07-17T17:56:47.440Z,3.17
2023-07-17T17:59:18.486Z,4.68
2023-07-17T18:01:45.922Z,4.47
2023-07-17T18:04:14.152Z,3.42
2023-07-17T18:06:50.090Z,3.67
2023-07-17T18:09:17.931Z,3.55
2023-07-17T18:15:23.221Z,3.40
2023-07-17T18:17:43.667Z,3.90
2023-07-17T18:20:12.135Z,4.35
2023-07-17T18:22:40.672Z,4.50
2023-07-17T18:25:13.241Z,5.30
2023-07-17T18:27:41.021Z,4.85
2023-07-17T18:30:12.932Z,5.15
2023-07-17T18:32:40.886Z,4.30
2023-07-17T18:35:08.929Z,3.88
2023-07-17T18:37:37.288Z,5.47
2023-07-17T18:40:10.307Z,5.60
2023-07-17T18:42:39.546Z,5.68
2023-07-17T18:45:08.739Z,5.13
2023-07-17T18:47:36.672Z,4.35
2023-07-17T18:50:10.332Z,5.18
2023-07-17T18:52:38.208Z,4.45
2023-07-17T18:55:09.928Z,5.38
2023-07-17T18:57:37.859Z,5.13
2023-07-17T19:00:20.341Z,5.57
2023-07-17T19:02:57.769Z,4.90
2023-07-17T19:05:25.306Z,5.85
2023-07-17T19:07:56.684Z,5.03
2023-07-17T19:10:24.465Z,4.93
2023-07-17T19:12:52.315Z,4.32
2023-07-17T19:15:27.752Z,4.28
2023-07-17T19:17:56.067Z,4.85
2023-07-17T19:20:23.450Z,5.10
2023-07-17T19:22:54.387Z,4.72
2023-07-17T19:25:22.082Z,4.28
2023-07-17T19:27:53.174Z,4.60
2023-07-17T19:30:26.339Z,4.60
2023-07-17T19:32:57.198Z,3.78
2023-07-17T19:35:25.372Z,3.92
2023-07-17T19:37:52.626Z,4.88
2023-07-17T19:40:22.853Z,4.00
2023-07-17T19:42:53.124Z,3.80
2023-07-17T19:45:24.086Z,4.00
2023-07-17T19:48:01.258Z,4.00
2023-07-17T19:50:28.960Z,3.97
2023-07-17T19:52:56.589Z,4.80
2023-07-17T19:55:29.146Z,5.47
2023-07-17T19:58:00.043Z,5.95
2023-07-17T20:00:35.077Z,5.00
2023-07-17T20:03:06.127Z,4.53
2023-07-17T20:05:33.778Z,4.38
2023-07-17T20:08:06.341Z,4.32
2023-07-17T20:10:37.617Z,5.20
2023-07-17T20:13:05.932Z,4.43
2023-07-17T20:15:34.403Z,3.97
2023-07-17T20:18:03.194Z,4.25
2023-07-17T20:20:35.827Z,4.10
2023-07-17T20:23:05.565Z,4.13
2023-07-17T20:25:40.142Z,3.92
2023-07-17T20:28:13.096Z,3.95
2023-07-17T20:30:40.648Z,3.47
2023-07-17T20:33:10.673Z,3.63
2023-07-17T20:35:43.743Z,3.15
2023-07-17T20:38:11.715Z,4.53
2023-07-17T20:40:40.646Z,5.03
2023-07-17T20:45:49.504Z,5.10
2023-07-17T20:48:21.363Z,3.97
2023-07-17T20:53:54.483Z,4.30
2023-07-17T20:56:28.492Z,4.15
2023-07-17T20:59:04.370Z,4.00
2023-07-17T21:01:44.200Z,3.83
2023-07-17T21:04:12.455Z,5.70
2023-07-17T21:06:47.026Z,5.30
2023-07-17T21:09:17.806Z,5.68
2023-07-17T21:11:48.395Z,4.40
2023-07-17T21:14:24.541Z,6.00
2023-07-17T21:16:52.014Z,4.97
2023-07-17T21:19:19.731Z,5.50
2023-07-17T21:21:56.149Z,5.25
2023-07-17T21:24:32.566Z,5.22
2023-07-17T21:27:01.385Z,5.20
2023-07-17T21:29:33.713Z,4.30
2023-07-17T21:32:09.843Z,4.93
2023-07-17T21:34:37.863Z,4.38
2023-07-17T21:37:13.181Z,3.83
2023-07-17T21:39:44.479Z,5.22
2023-07-17T21:42:26.050Z,4.68
2023-07-17T21:44:53.580Z,4.88
2023-07-17T21:47:24.962Z,4.55
2023-07-17T21:49:52.843Z,4.30
2023-07-17T21:52:22.991Z,4.53
2023-07-17T21:54:50.299Z,4.13
2023-07-17T21:57:25.418Z,4.20
2023-07-17T21:59:58.815Z,5.13
2023-07-17T22:02:39.326Z,4.30
2023-07-17T22:05:07.720Z,3.67
2023-07-17T22:07:36.035Z,4.78
2023-07-17T22:10:06.890Z,3.58
2023-07-17T22:12:41.586Z,4.05
2023-07-17T22:15:13.074Z,4.60
2023-07-17T22:17:43.704Z,4.05
2023-07-17T22:20:15.705Z,3.63
2023-07-17T22:22:49.809Z,3.92
2023-07-17T22:25:19.049Z,4.32
2023-07-17T22:27:57.616Z,3.80
2023-07-17T22:30:25.943Z,4.13
2023-07-17T22:32:53.900Z,3.60
2023-07-17T22:35:27.279Z,3.88
2023-07-17T22:37:54.791Z,4.20
2023-07-17T22:40:22.748Z,3.92
2023-07-17T22:42:50.772Z,4.55
2023-07-17T22:45:26.471Z,3.83
2023-07-17T22:48:12.115Z,3.75
2023-07-17T22:50:42.220Z,3.55
2023-07-17T22:53:09.598Z,4.05
2023-07-17T22:55:50.637Z,3.03
2023-07-17T23:01:10.062Z,4.40
2023-07-17T23:03:38.348Z,3.92
2023-07-17T23:06:07.168Z,4.95
2023-07-17T23:08:36.108Z,5.70
2023-07-17T23:11:13.573Z,4.82
2023-07-17T23:16:12.019Z,4.35
2023-07-17T23:18:42.201Z,5.13
2023-07-17T23:21:12.777Z,4.47
2023-07-17T23:23:40.185Z,3.53
2023-07-17T23:26:10.336Z,3.47
2023-07-17T23:28:41.750Z,3.33
2023-07-17T23:31:12.368Z,4.40
2023-07-17T23:33:40.660Z,3.88
2023-07-17T23:36:08.940Z,4.20
2023-07-17T23:38:39.276Z,4.45
2023-07-17T23:41:09.676Z,4.40
2023-07-17T23:43:59.851Z,4.22
2023-07-17T23:46:27.832Z,4.20
2023-07-17T23:48:56.369Z,3.72
2023-07-17T23:51:24.298Z,3.72
2023-07-17T23:53:53.675Z,3.85
2023-07-17T23:56:24.837Z,3.85
2023-07-17T23:59:01.767Z,3.92
